Time;durP1;ratioP1;P1;durP2;ratioP2;P2;SDS_P1;SDS_P2;PMS_P1;PMS_P2;Temp;Humidity;BMP_temperature;BMP_pressure;BME280_temperature;BME280_humidity;BME280_pressure;Samples;Min_cycle;Max_cycle;Signal;HPM_P1;HPM_P2
2022/03/18 00:02:05;;;;;;;;;15.75;14.00;;;;;8.43;60.73;103415.41;5048925;28;45525;-63
2022/03/18 00:04:30;;;;;;;;;21.25;14.00;;;;;8.39;60.83;103403.22;5045081;28;45514;-62
2022/03/18 00:06:56;;;;;;;;;15.25;13.25;;;;;8.38;60.88;103409.34;5049764;28;45498;-63
2022/03/18 00:09:22;;;;;;;;;17.50;12.00;;;;;8.35;60.92;103411.97;5051279;28;45486;-65
2022/03/18 00:11:48;;;;;;;;;19.75;16.00;;;;;8.34;60.46;103413.69;5050131;28;45408;-64
2022/03/18 00:14:14;;;;;;;;;13.50;12.25;;;;;8.31;60.85;103412.88;5049334;28;45602;-66
2022/03/18 00:16:40;;;;;;;;;16.75;16.00;;;;;8.26;60.80;103410.25;5050458;28;46041;-64
2022/03/18 00:19:06;;;;;;;;;15.00;14.00;;;;;8.23;60.74;103405.03;5051087;28;45452;-66
2022/03/18 00:21:34;;;;;;;;;17.25;14.25;;;;;8.22;60.75;103407.69;5047730;28;45470;-63
2022/03/18 00:24:03;;;;;;;;;16.00;12.00;;;;;8.19;60.83;103403.28;5050820;28;45506;-63
2022/03/18 00:26:31;;;;;;;;;17.75;14.25;;;;;8.20;60.82;103406.78;5032232;28;45438;-62
2022/03/18 00:28:57;;;;;;;;;17.50;14.25;;;;;8.17;60.65;103406.81;5050493;28;45376;-68
2022/03/18 00:31:22;;;;;;;;;20.75;15.25;;;;;8.12;60.77;103418.22;5049720;28;45440;-61
2022/03/18 00:33:48;;;;;;;;;16.75;12.75;;;;;8.12;60.97;103425.22;5049702;28;45355;-60
2022/03/18 00:36:13;;;;;;;;;13.25;11.00;;;;;8.09;60.99;103418.25;5048127;28;45578;-62
2022/03/18 00:38:39;;;;;;;;;27.25;16.75;;;;;8.08;61.24;103427.00;5051072;28;45396;-62
2022/03/18 00:41:05;;;;;;;;;20.50;16.50;;;;;8.09;61.39;103423.50;5045013;28;45915;-64
2022/03/18 00:43:30;;;;;;;;;17.50;17.00;;;;;8.06;61.54;103422.66;5049309;28;45739;-65
2022/03/18 00:45:56;;;;;;;;;17.00;14.50;;;;;8.06;61.05;103420.03;5049497;28;46054;-69
2022/03/18 00:53:51;;;;;;;;;16.50;14.25;;;;;8.03;61.55;103428.78;5049470;28;45498;-66
2022/03/18 00:56:17;;;;;;;;;27.00;18.00;;;;;8.04;61.58;103424.41;5049093;28;46321;-68
2022/03/18 00:58:43;;;;;;;;;20.50;16.50;;;;;8.03;61.47;103420.03;5050094;28;45434;-63
2022/03/18 01:01:08;;;;;;;;;15.00;14.50;;;;;8.02;61.58;103421.78;5051016;28;45530;-62
2022/03/18 01:03:35;;;;;;;;;16.75;14.75;;;;;8.01;61.56;103414.78;5053575;28;46502;-64
2022/03/18 01:06:01;;;;;;;;;17.50;15.75;;;;;8.01;61.55;103420.03;5050225;28;45325;-63
2022/03/18 01:08:26;;;;;;;;;26.25;21.75;;;;;8.00;62.03;103417.44;5051556;28;45360;-66
2022/03/18 01:10:53;;;;;;;;;22.00;17.50;;;;;7.97;62.28;103412.19;5051218;28;45445;-64
2022/03/18 01:13:19;;;;;;;;;17.75;16.75;;;;;7.96;62.03;103420.94;5049518;28;45356;-62
2022/03/18 01:15:45;;;;;;;;;24.25;21.75;;;;;7.93;61.85;103413.09;5050352;28;45305;-64
2022/03/18 01:18:11;;;;;;;;;24.00;19.00;;;;;7.95;62.08;103420.06;5049944;28;45427;-63
2022/03/18 01:20:37;;;;;;;;;19.50;14.50;;;;;7.96;62.19;103427.06;5051619;28;45632;-63
2022/03/18 01:23:05;;;;;;;;;24.50;20.75;;;;;7.96;62.30;103427.06;5034088;28;45333;-65
2022/03/18 01:25:31;;;;;;;;;17.75;14.50;;;;;7.97;62.25;103431.44;5032059;28;47617;-62
2022/03/18 01:27:57;;;;;;;;;22.75;20.25;;;;;7.97;62.15;103425.31;5049613;28;45431;-64
2022/03/18 01:30:22;;;;;;;;;24.50;22.25;;;;;7.96;62.38;103427.06;5051544;28;45444;-62
2022/03/18 01:32:49;;;;;;;;;30.00;21.50;;;;;7.96;62.51;103428.81;5051471;28;45289;-62
2022/03/18 01:35:15;;;;;;;;;29.25;19.75;;;;;7.95;62.64;103427.06;5049086;28;46077;-70
2022/03/18 01:37:40;;;;;;;;;27.75;22.25;;;;;7.95;62.78;103429.69;5047794;28;45415;-59
2022/03/18 01:40:06;;;;;;;;;28.00;20.50;;;;;7.92;62.92;103429.72;5049946;28;45653;-65
2022/03/18 01:42:31;;;;;;;;;27.00;22.75;;;;;7.91;62.94;103428.84;5051309;28;45487;-62
2022/03/18 01:44:57;;;;;;;;;26.00;21.00;;;;;7.88;63.12;103426.22;5046749;28;46130;-61
2022/03/18 01:47:22;;;;;;;;;24.00;21.00;;;;;7.88;63.05;103433.22;5046704;28;45515;-61
2022/03/18 01:49:48;;;;;;;;;30.00;25.00;;;;;7.87;62.96;103436.75;5047154;28;45687;-61
2022/03/18 01:52:13;;;;;;;;;25.25;22.75;;;;;7.86;63.53;103435.00;5032069;28;45499;-61
2022/03/18 01:54:47;;;;;;;;;25.00;21.25;;;;;7.84;63.43;103435.00;5048275;28;45511;-62
2022/03/18 01:57:16;;;;;;;;;31.25;24.00;;;;;7.80;63.53;103441.13;5047299;28;45401;-61
2022/03/18 01:59:41;;;;;;;;;26.00;24.50;;;;;7.76;63.81;103440.28;5050533;28;45445;-61
2022/03/18 02:02:08;;;;;;;;;27.75;25.00;;;;;7.75;63.97;103437.69;5049386;28;45743;-61
2022/03/18 02:04:35;;;;;;;;;28.25;22.00;;;;;7.72;63.91;103438.53;5049128;28;46537;-61
2022/03/18 02:07:02;;;;;;;;;32.75;24.50;;;;;7.69;64.19;103433.31;5051271;28;45475;-61
2022/03/18 02:09:27;;;;;;;;;26.00;22.50;;;;;7.65;64.38;103431.56;5047409;28;45571;-61
2022/03/18 02:11:54;;;;;;;;;34.25;27.00;;;;;7.63;64.29;103443.84;5050327;28;45954;-61
2022/03/18 02:14:43;;;;;;;;;30.50;27.00;;;;;7.61;64.41;103442.97;5049265;28;46426;-61
2022/03/18 02:17:12;;;;;;;;;29.50;25.50;;;;;7.60;64.64;103440.38;5049467;28;45435;-61
2022/03/18 02:19:40;;;;;;;;;30.75;25.25;;;;;7.59;64.57;103442.13;5047553;28;45453;-62
2022/03/18 02:22:14;;;;;;;;;36.50;25.75;;;;;7.59;64.50;103446.50;5046511;28;45515;-62
2022/03/18 02:24:45;;;;;;;;;30.25;25.50;;;;;7.56;64.56;103450.84;5046472;28;45483;-62
2022/03/18 02:27:11;;;;;;;;;28.50;25.50;;;;;7.54;64.64;103441.25;5047669;28;45452;-62
2022/03/18 02:29:37;;;;;;;;;31.50;29.75;;;;;7.55;64.82;103445.59;5047508;28;45484;-62
2022/03/18 02:32:07;;;;;;;;;39.50;33.25;;;;;7.53;64.66;103443.00;5048530;28;45924;-61
2022/03/18 02:34:35;;;;;;;;;34.00;30.50;;;;;7.51;65.00;103436.91;5049016;28;45456;-62
2022/03/18 02:37:01;;;;;;;;;39.50;35.75;;;;;7.51;65.18;103428.16;5049002;28;45562;-62
2022/03/18 02:39:27;;;;;;;;;44.00;35.50;;;;;7.53;65.06;103418.53;5050138;28;45853;-62
2022/03/18 02:41:52;;;;;;;;;45.50;34.50;;;;;7.53;65.30;103414.16;5048462;28;45608;-61
2022/03/18 02:44:18;;;;;;;;;38.25;31.25;;;;;7.54;64.69;103429.00;5048455;28;46156;-62
2022/03/18 02:46:44;;;;;;;;;40.00;34.50;;;;;7.53;64.72;103422.00;5049288;28;45822;-61
2022/03/18 02:49:09;;;;;;;;;36.75;33.00;;;;;7.50;64.91;103432.53;5049346;28;45546;-61
2022/03/18 02:51:38;;;;;;;;;40.50;33.00;;;;;7.46;64.78;103430.78;5051850;28;45526;-61
2022/03/18 02:54:05;;;;;;;;;36.00;32.50;;;;;7.42;65.00;103439.50;5050789;28;45462;-61
2022/03/18 02:56:32;;;;;;;;;38.00;31.50;;;;;7.38;65.32;103437.78;5050143;28;45431;-62
2022/03/18 02:58:58;;;;;;;;;41.50;31.75;;;;;7.40;64.92;103443.03;5052325;28;45459;-62
2022/03/18 03:01:23;;;;;;;;;35.75;33.50;;;;;7.37;65.46;103441.28;5049330;28;45396;-62
2022/03/18 03:03:49;;;;;;;;;44.75;34.75;;;;;7.37;65.51;103445.66;5050077;28;46065;-62
2022/03/18 03:08:59;;;;;;;;;37.50;30.75;;;;;7.36;65.22;103446.56;5049992;28;45380;-62
2022/03/18 03:11:24;;;;;;;;;36.75;32.00;;;;;7.33;65.20;103436.94;5051810;28;45510;-62
2022/03/18 03:13:50;;;;;;;;;45.00;33.75;;;;;7.35;65.44;103437.81;5050707;28;45472;-62
2022/03/18 03:16:16;;;;;;;;;43.75;34.25;;;;;7.37;65.67;103443.06;5051780;28;45571;-62
2022/03/18 03:18:42;;;;;;;;;36.50;29.50;;;;;7.36;65.43;103451.81;5049912;28;45402;-62
2022/03/18 03:21:07;;;;;;;;;43.75;35.25;;;;;7.36;65.49;103455.28;5048965;28;45480;-62
2022/03/18 03:23:32;;;;;;;;;30.00;25.75;;;;;7.36;65.44;103457.03;5049986;28;45436;-62
2022/03/18 03:25:58;;;;;;;;;34.00;26.00;;;;;7.34;65.81;103471.88;5049166;28;45423;-62
2022/03/18 03:28:24;;;;;;;;;43.00;32.25;;;;;7.31;65.29;103466.66;5051008;28;45441;-62
2022/03/18 03:30:49;;;;;;;;;31.00;27.25;;;;;7.26;65.48;103454.41;5051268;28;45832;-62
2022/03/18 03:33:15;;;;;;;;;29.25;27.25;;;;;7.23;65.70;103458.81;5051615;28;46219;-62
2022/03/18 03:35:41;;;;;;;;;33.75;29.00;;;;;7.21;65.40;103469.28;5052960;28;45415;-62
2022/03/18 03:38:09;;;;;;;;;26.75;25.25;;;;;7.19;65.01;103467.56;5050684;28;45408;-62
2022/03/18 03:40:36;;;;;;;;;31.25;25.00;;;;;7.18;64.96;103457.94;5052314;28;45511;-62
2022/03/18 03:43:02;;;;;;;;;25.50;21.75;;;;;7.15;65.24;103471.91;5051208;28;45577;-62
2022/03/18 03:45:28;;;;;;;;;29.00;25.50;;;;;7.15;65.04;103466.69;5052216;28;45543;-62
2022/03/18 03:47:53;;;;;;;;;33.00;29.00;;;;;7.09;64.93;103464.06;5050779;28;45634;-62
2022/03/18 03:50:19;;;;;;;;;34.25;24.75;;;;;7.05;65.59;103470.19;5051987;28;45456;-62
2022/03/18 03:52:45;;;;;;;;;36.00;24.50;;;;;7.03;65.48;103469.31;5049737;28;46424;-62
2022/03/18 03:55:13;;;;;;;;;37.50;24.75;;;;;7.00;65.27;103464.06;5049421;28;45437;-62
2022/03/18 03:57:40;;;;;;;;;24.00;22.75;;;;;6.96;65.43;103465.84;5048671;28;45649;-62
2022/03/18 04:00:07;;;;;;;;;24.75;20.25;;;;;6.93;65.41;103473.69;5049984;28;45621;-62
2022/03/18 04:02:33;;;;;;;;;25.75;20.50;;;;;6.90;64.85;103478.06;5048537;28;47490;-62
2022/03/18 04:04:59;;;;;;;;;28.50;25.25;;;;;6.87;65.20;103488.53;5048884;28;45807;-62
2022/03/18 04:07:25;;;;;;;;;30.25;29.00;;;;;6.87;65.66;103485.91;5033129;28;45717;-62
2022/03/18 04:09:54;;;;;;;;;38.25;25.50;;;;;6.87;65.22;103478.94;5051979;28;45500;-63
2022/03/18 04:12:22;;;;;;;;;35.00;28.00;;;;;6.87;65.61;103483.28;5050730;28;45667;-62
2022/03/18 04:14:49;;;;;;;;;30.50;27.00;;;;;6.85;65.71;103485.03;5048176;28;45537;-62
2022/03/18 04:17:15;;;;;;;;;33.00;24.50;;;;;6.85;65.83;103483.28;5049645;28;45469;-62
2022/03/18 04:19:40;;;;;;;;;32.50;28.00;;;;;6.85;65.18;103480.66;5049807;28;45551;-61
2022/03/18 04:22:06;;;;;;;;;31.75;25.50;;;;;6.83;65.29;103487.66;5051163;28;45600;-62
2022/03/18 04:24:31;;;;;;;;;31.50;28.75;;;;;6.82;65.58;103493.78;5051459;28;45417;-62
2022/03/18 04:26:57;;;;;;;;;29.50;25.00;;;;;6.82;65.92;103501.63;5050173;28;45334;-62
2022/03/18 04:29:23;;;;;;;;;41.25;28.25;;;;;6.82;65.41;103512.13;5049223;28;45439;-62
2022/03/18 04:31:49;;;;;;;;;29.00;25.00;;;;;6.80;65.88;103513.88;5048320;28;45401;-62
2022/03/18 04:34:15;;;;;;;;;29.00;24.00;;;;;6.79;65.57;103514.72;5048298;28;45630;-62
2022/03/18 04:36:41;;;;;;;;;32.00;27.25;;;;;6.77;65.27;103510.34;5048496;28;45650;-62
2022/03/18 04:39:06;;;;;;;;;30.50;21.75;;;;;6.72;65.28;103513.00;5050768;28;45633;-62
2022/03/18 04:41:32;;;;;;;;;23.50;19.00;;;;;6.66;64.83;103513.84;5049927;28;45471;-62
2022/03/18 04:43:57;;;;;;;;;24.00;23.75;;;;;6.62;65.53;103526.91;5049185;28;45547;-63
2022/03/18 04:46:23;;;;;;;;;34.50;23.25;;;;;6.60;65.28;103523.44;5051260;28;45450;-62
2022/03/18 04:48:48;;;;;;;;;29.25;26.75;;;;;6.56;65.32;103527.81;5050959;28;45674;-62
2022/03/18 04:51:14;;;;;;;;;32.00;24.00;;;;;6.54;65.30;103519.03;5049234;28;46138;-64
2022/03/18 04:53:40;;;;;;;;;28.25;24.25;;;;;6.54;64.56;103524.28;5031686;28;45452;-62
2022/03/18 04:57:15;;;;;;;;;25.25;20.00;;;;;6.53;65.30;103517.31;5048157;28;45460;-62
2022/03/18 04:58:51;;;;;;;;;26.25;24.25;;;;;6.51;65.35;103524.28;5049233;28;45430;-62
2022/03/18 05:01:18;;;;;;;;;27.25;20.75;;;;;6.51;64.85;103526.91;5048044;28;45494;-62
2022/03/18 05:03:46;;;;;;;;;27.25;19.00;;;;;6.51;64.85;103524.28;5048495;28;45684;-62
2022/03/18 05:06:11;;;;;;;;;33.00;24.25;;;;;6.50;65.27;103521.66;5050987;28;45538;-62
2022/03/18 05:08:37;;;;;;;;;27.50;22.50;;;;;6.47;64.87;103530.38;5050225;28;45526;-62
2022/03/18 05:11:02;;;;;;;;;31.75;26.75;;;;;6.48;65.11;103533.84;5052216;28;45882;-62
2022/03/18 05:13:29;;;;;;;;;26.25;23.00;;;;;6.48;65.33;103531.25;5049567;28;45516;-62
2022/03/18 05:15:55;;;;;;;;;26.75;19.75;;;;;6.48;65.21;103533.84;5047875;28;45797;-62
2022/03/18 05:18:21;;;;;;;;;28.50;22.25;;;;;6.43;64.96;103542.59;5048874;28;45519;-62
2022/03/18 05:20:46;;;;;;;;;10.75;7.00;;;;;6.43;64.39;103536.47;5046725;28;45476;-61
2022/03/18 05:23:12;;;;;;;;;23.75;20.75;;;;;6.42;65.00;103546.09;5047301;28;45371;-62
2022/03/18 05:25:39;;;;;;;;;23.50;19.25;;;;;6.41;64.39;103552.19;5048332;28;45409;-62
2022/03/18 05:28:05;;;;;;;;;30.75;23.00;;;;;6.38;64.50;103541.69;5048170;28;45577;-61
2022/03/18 05:30:31;;;;;;;;;24.50;20.50;;;;;6.37;64.47;103545.19;5049701;28;46068;-62
2022/03/18 05:32:57;;;;;;;;;27.25;20.75;;;;;6.38;64.63;103551.28;5049541;28;45471;-61
2022/03/18 05:35:22;;;;;;;;;28.00;22.00;;;;;6.37;64.85;103566.13;5050420;28;45438;-61
2022/03/18 05:37:48;;;;;;;;;23.50;21.75;;;;;6.35;64.25;103567.00;5049658;28;46417;-61
2022/03/18 05:40:18;;;;;;;;;19.25;19.25;;;;;6.35;64.78;103552.16;5050373;28;45574;-62
2022/03/18 05:42:45;;;;;;;;;22.00;20.25;;;;;6.36;64.35;103551.28;5046168;28;45317;-61
2022/03/18 05:45:11;;;;;;;;;18.25;13.00;;;;;6.37;64.76;103558.28;5045643;28;45400;-61
2022/03/18 05:47:37;;;;;;;;;25.00;21.75;;;;;6.37;64.55;103555.66;5047398;28;45926;-62
2022/03/18 05:50:05;;;;;;;;;26.00;23.00;;;;;6.40;64.45;103555.69;5048254;28;45821;-62
2022/03/18 05:52:35;;;;;;;;;23.50;18.00;;;;;6.42;64.24;103555.69;5047954;28;45776;-62
2022/03/18 05:55:02;;;;;;;;;19.50;17.25;;;;;6.46;63.87;103553.94;5046473;28;45471;-61
2022/03/18 05:57:28;;;;;;;;;27.00;24.25;;;;;6.47;63.41;103550.44;5027878;28;45491;-62
2022/03/18 05:59:56;;;;;;;;;20.25;19.00;;;;;6.49;63.74;103552.22;5048075;28;45798;-62
2022/03/18 06:02:22;;;;;;;;;24.75;18.50;;;;;6.52;63.59;103561.81;5059846;28;45454;-62
2022/03/18 06:04:47;;;;;;;;;26.50;19.75;;;;;6.52;63.15;103565.31;5060397;28;45392;-62
2022/03/18 06:07:14;;;;;;;;;29.50;23.25;;;;;6.53;63.34;103561.81;5060297;28;45276;-62
2022/03/18 06:12:24;;;;;;;;;27.75;20.75;;;;;6.53;63.66;103567.06;5039814;28;45436;-61
2022/03/18 06:14:50;;;;;;;;;32.25;24.25;;;;;6.54;62.62;103563.56;5047207;28;45530;-62
2022/03/18 06:17:15;;;;;;;;;31.50;20.50;;;;;6.54;62.88;103562.69;5044290;28;45349;-62
2022/03/18 06:19:41;;;;;;;;;27.25;22.75;;;;;6.55;62.87;103567.06;5039875;28;45245;-62
2022/03/18 06:22:08;;;;;;;;;30.50;22.75;;;;;6.58;63.39;103573.19;5022214;28;45188;-62
2022/03/18 06:24:34;;;;;;;;;23.75;21.75;;;;;6.60;62.95;103574.06;5048342;28;45435;-62
2022/03/18 06:27:01;;;;;;;;;26.25;21.75;;;;;6.60;63.33;103575.81;5063856;28;45431;-62
2022/03/18 06:29:27;;;;;;;;;28.75;22.00;;;;;6.57;62.81;103574.06;5063368;28;46029;-61
2022/03/18 06:31:54;;;;;;;;;26.00;23.25;;;;;6.59;63.11;103574.06;5054256;28;45349;-62
2022/03/18 06:34:23;;;;;;;;;23.75;20.50;;;;;6.59;62.46;103574.94;5052993;28;45332;-62
2022/03/18 06:36:54;;;;;;;;;24.50;21.75;;;;;6.58;62.77;103573.19;5052798;28;45554;-62
2022/03/18 06:39:20;;;;;;;;;32.25;25.75;;;;;6.59;62.83;103582.78;5053034;28;46159;-62
2022/03/18 06:41:47;;;;;;;;;62.25;49.25;;;;;6.60;62.73;103571.44;5052127;28;45551;-62
2022/03/18 06:44:12;;;;;;;;;27.25;24.00;;;;;6.64;63.08;103575.84;5047968;28;45417;-62
2022/03/18 06:46:38;;;;;;;;;29.75;25.25;;;;;6.67;62.65;103567.97;5048696;28;45641;-60
2022/03/18 06:49:06;;;;;;;;;33.00;25.75;;;;;6.66;62.53;103561.00;5049603;28;46524;-60
2022/03/18 06:51:31;;;;;;;;;29.75;27.75;;;;;6.68;62.31;103576.69;5058286;28;45292;-62
2022/03/18 06:53:57;;;;;;;;;35.25;27.50;;;;;6.68;62.54;103574.97;5043209;28;45340;-62
2022/03/18 06:56:23;;;;;;;;;30.00;24.50;;;;;6.71;62.64;103584.56;5043650;28;45252;-62
2022/03/18 06:58:49;;;;;;;;;27.75;23.50;;;;;6.72;62.11;103581.09;5042669;28;45775;-60
2022/03/18 07:01:14;;;;;;;;;31.50;24.25;;;;;6.75;62.24;103575.84;5058300;28;45313;-60
2022/03/18 07:03:40;;;;;;;;;27.50;25.50;;;;;6.76;62.53;103585.44;5063600;28;45368;-61
2022/03/18 07:06:06;;;;;;;;;37.25;23.75;;;;;6.77;62.55;103588.94;5063780;28;45421;-60
2022/03/18 07:08:33;;;;;;;;;27.75;24.75;;;;;6.76;62.41;103584.56;5062973;28;46224;-60
2022/03/18 07:10:58;;;;;;;;;26.50;23.50;;;;;6.75;62.28;103581.09;5060466;28;46760;-60
2022/03/18 07:13:24;;;;;;;;;27.75;23.75;;;;;6.75;61.97;103577.59;5042377;28;45443;-61
2022/03/18 07:15:49;;;;;;;;;26.25;23.25;;;;;6.79;61.93;103576.72;5047560;28;45557;-60
2022/03/18 07:18:15;;;;;;;;;24.75;20.50;;;;;6.82;62.44;103577.63;5042048;28;46235;-63
2022/03/18 07:20:41;;;;;;;;;28.75;23.00;;;;;6.85;62.29;103588.09;5057827;28;45316;-63
2022/03/18 07:23:15;;;;;;;;;37.25;28.00;;;;;6.95;62.01;103588.97;5062759;28;45466;-62
2022/03/18 07:25:43;;;;;;;;;28.25;21.50;;;;;7.05;61.72;103585.50;5063259;28;45427;-63
2022/03/18 07:28:12;;;;;;;;;36.25;28.00;;;;;7.15;61.47;103592.50;5061880;28;45346;-63
2022/03/18 07:30:39;;;;;;;;;33.25;27.75;;;;;7.23;61.35;103593.38;5062338;28;45547;-62
2022/03/18 07:33:06;;;;;;;;;35.75;29.75;;;;;7.33;61.03;103581.13;5062894;28;45458;-62
2022/03/18 07:35:32;;;;;;;;;20.25;19.75;;;;;7.38;60.58;103582.03;5061833;28;45753;-62
2022/03/18 07:37:58;;;;;;;;;35.75;26.75;;;;;7.43;60.84;103588.16;5062250;28;45294;-62
2022/03/18 07:40:24;;;;;;;;;32.25;25.75;;;;;7.50;60.77;103573.25;5058521;28;45770;-61
2022/03/18 07:42:52;;;;;;;;;31.25;21.25;;;;;7.56;60.52;103581.13;5042737;28;45387;-62
2022/03/18 07:45:27;;;;;;;;;29.25;25.00;;;;;7.60;60.37;103575.00;5042765;28;45585;-62
2022/03/18 07:47:55;;;;;;;;;27.50;24.00;;;;;7.67;60.76;103583.75;5042493;28;46403;-63
2022/03/18 07:50:23;;;;;;;;;31.00;23.75;;;;;7.68;60.25;103591.63;5042363;28;45352;-62
2022/03/18 07:52:50;;;;;;;;;30.00;27.25;;;;;7.73;60.22;103596.84;5042846;28;45229;-62
2022/03/18 07:55:21;;;;;;;;;32.00;24.50;;;;;7.80;60.08;103590.72;5049495;28;45467;-62
2022/03/18 07:57:47;;;;;;;;;28.75;23.00;;;;;7.86;60.10;103592.47;5062312;28;45888;-64
2022/03/18 08:00:14;;;;;;;;;28.25;21.75;;;;;7.95;59.63;103597.69;5054550;28;45227;-63
2022/03/18 08:02:41;;;;;;;;;24.25;21.25;;;;;8.01;59.37;103590.66;5062906;28;45247;-62
2022/03/18 08:05:08;;;;;;;;;27.75;23.50;;;;;8.09;59.07;103588.88;5062645;28;45410;-62
2022/03/18 08:07:34;;;;;;;;;30.50;21.75;;;;;8.15;59.39;103601.13;5062644;28;45267;-62
2022/03/18 08:10:00;;;;;;;;;24.00;20.00;;;;;8.25;59.20;103600.22;5062419;28;45334;-62
2022/03/18 08:12:29;;;;;;;;;24.00;23.75;;;;;8.33;59.23;103590.56;5049857;28;45321;-62
2022/03/18 08:14:59;;;;;;;;;25.50;23.00;;;;;8.40;58.86;103601.94;5049093;28;45159;-62
2022/03/18 08:17:26;;;;;;;;;27.50;22.75;;;;;8.50;58.76;103602.75;5062232;28;45291;-62
2022/03/18 08:19:52;;;;;;;;;20.50;16.75;;;;;8.57;58.45;103604.50;5062428;28;45522;-62
2022/03/18 08:22:21;;;;;;;;;25.00;21.00;;;;;8.63;58.10;103614.97;5062553;28;45448;-62
2022/03/18 08:24:49;;;;;;;;;27.75;20.00;;;;;8.71;58.20;103609.69;5062614;28;45250;-62
2022/03/18 08:27:16;;;;;;;;;17.00;15.75;;;;;8.78;57.72;103612.25;5062638;28;45338;-61
2022/03/18 08:29:42;;;;;;;;;21.50;20.75;;;;;8.85;57.78;103603.47;5062093;28;45331;-62
2022/03/18 08:32:12;;;;;;;;;22.25;19.50;;;;;8.95;57.60;103614.78;5062417;28;45233;-62
2022/03/18 08:34:38;;;;;;;;;25.00;21.75;;;;;9.01;57.15;103617.38;5062589;28;45553;-62
2022/03/18 08:37:05;;;;;;;;;20.25;16.75;;;;;9.10;57.11;103619.06;5062045;28;46512;-62
2022/03/18 08:39:32;;;;;;;;;26.25;20.00;;;;;9.21;57.29;103612.84;5061964;28;45437;-62
2022/03/18 08:41:57;;;;;;;;;25.50;22.50;;;;;9.31;56.34;103616.25;5046311;28;45402;-62
2022/03/18 08:44:23;;;;;;;;;26.75;19.00;;;;;9.40;56.18;103626.75;5041908;28;45392;-62
2022/03/18 08:46:49;;;;;;;;;21.75;15.75;;;;;9.48;55.50;103621.41;5041182;28;45938;-61
2022/03/18 08:49:15;;;;;;;;;23.50;17.00;;;;;9.54;55.62;103608.19;5041540;28;45263;-63
2022/03/18 08:51:41;;;;;;;;;27.75;21.75;;;;;9.58;55.14;103612.53;5041992;28;45239;-62
2022/03/18 08:54:06;;;;;;;;;22.50;17.25;;;;;9.65;55.48;103605.47;5041971;28;45496;-62
2022/03/18 08:56:32;;;;;;;;;27.00;19.50;;;;;9.75;54.72;103612.38;5041407;28;46009;-62
2022/03/18 08:58:58;;;;;;;;;18.50;15.00;;;;;9.82;54.52;103607.94;5023507;28;45409;-62
2022/03/18 09:01:25;;;;;;;;;21.75;19.00;;;;;9.92;54.26;103610.44;5057475;28;45342;-62
2022/03/18 09:03:51;;;;;;;;;18.75;18.00;;;;;10.00;54.07;103611.22;5061733;28;45273;-62
2022/03/18 09:06:17;;;;;;;;;20.50;18.00;;;;;10.07;53.67;103614.69;5061452;28;46012;-62
2022/03/18 09:08:44;;;;;;;;;21.25;17.75;;;;;10.17;52.35;103611.03;5061667;28;45210;-61
2022/03/18 09:11:10;;;;;;;;;24.25;16.25;;;;;10.25;53.30;103613.63;5041071;28;45286;-62
2022/03/18 09:13:36;;;;;;;;;24.00;22.25;;;;;10.32;53.14;103615.28;5041448;28;45338;-62
2022/03/18 09:16:05;;;;;;;;;18.50;15.00;;;;;10.36;52.63;103609.09;5041155;28;45392;-62
2022/03/18 09:18:31;;;;;;;;;21.25;19.00;;;;;10.45;52.20;103610.75;5030131;28;45406;-62
2022/03/18 09:20:57;;;;;;;;;21.50;18.00;;;;;10.56;52.37;103612.34;5041614;28;45586;-62
2022/03/18 09:23:23;;;;;;;;;19.75;16.25;;;;;10.66;51.90;103602.53;5041535;28;45207;-62
2022/03/18 09:25:49;;;;;;;;;18.50;15.00;;;;;10.76;51.50;103608.56;5041047;28;46053;-62
2022/03/18 09:28:14;;;;;;;;;26.50;19.50;;;;;10.84;51.74;103604.94;5040908;28;45234;-62
2022/03/18 09:30:41;;;;;;;;;18.75;16.25;;;;;10.97;51.19;103605.59;5041174;28;45598;-62
2022/03/18 09:33:07;;;;;;;;;16.75;14.25;;;;;11.05;50.80;103613.41;5041262;28;45373;-62
2022/03/18 09:35:33;;;;;;;;;19.50;18.00;;;;;11.12;50.21;103615.06;5040720;28;46294;-62
2022/03/18 09:37:59;;;;;;;;;22.75;16.25;;;;;11.18;49.70;103613.19;5040899;28;45461;-62
2022/03/18 09:40:24;;;;;;;;;14.25;13.75;;;;;11.24;49.48;103606.97;5052371;28;45265;-62
2022/03/18 09:42:59;;;;;;;;;13.75;13.00;;;;;11.36;48.28;103613.78;5041131;28;45351;-61
2022/03/18 09:45:30;;;;;;;;;15.00;11.50;;;;;11.44;47.93;103615.41;5041124;28;45450;-62
2022/03/18 09:47:57;;;;;;;;;10.75;8.00;;;;;11.48;46.83;103600.41;5040666;28;45269;-62
2022/03/18 09:50:23;;;;;;;;;14.75;10.00;;;;;11.52;45.82;103617.91;5041067;28;45452;-62
2022/03/18 09:52:48;;;;;;;;;17.25;11.50;;;;;11.59;45.70;103624.84;5041359;28;45353;-63
2022/03/18 09:55:14;;;;;;;;;13.00;10.00;;;;;11.64;45.54;103611.56;5040878;28;46360;-62
2022/03/18 09:57:39;;;;;;;;;16.00;13.00;;;;;11.67;45.07;103609.72;5040796;28;45312;-62
2022/03/18 10:00:05;;;;;;;;;11.00;10.00;;;;;11.72;44.67;103613.16;5045279;28;45331;-62
2022/03/18 10:02:33;;;;;;;;;12.75;10.75;;;;;11.80;44.73;103622.72;5061180;28;45388;-62
2022/03/18 10:05:01;;;;;;;;;9.00;9.00;;;;;11.85;44.88;103608.56;5060763;28;45781;-62
2022/03/18 10:07:28;;;;;;;;;10.50;9.25;;;;;11.94;44.18;103597.84;5061089;28;45244;-62
2022/03/18 10:10:01;;;;;;;;;13.00;9.00;;;;;12.06;44.24;103611.69;5060840;28;45326;-62
2022/03/18 10:12:34;;;;;;;;;10.50;8.25;;;;;12.14;44.04;103622.97;5047919;28;45188;-62
2022/03/18 10:15:09;;;;;;;;;13.25;11.50;;;;;12.22;43.00;103621.06;5047546;28;45524;-62
2022/03/18 10:17:40;;;;;;;;;15.75;11.00;;;;;12.26;42.85;103620.09;5060501;28;45209;-63
2022/03/18 10:20:06;;;;;;;;;11.25;9.75;;;;;12.25;41.45;103624.53;5061027;28;45332;-62
2022/03/18 10:22:33;;;;;;;;;17.25;10.00;;;;;12.22;41.46;103616.63;5060678;28;45325;-62
2022/03/18 10:25:00;;;;;;;;;12.00;7.50;;;;;12.25;41.46;103624.53;5060442;28;46188;-62
2022/03/18 10:27:26;;;;;;;;;14.00;8.75;;;;;12.28;41.76;103605.94;5060651;28;45309;-63
2022/03/18 10:29:56;;;;;;;;;14.75;11.00;;;;;12.32;41.91;103598.81;5060560;28;45245;-63
2022/03/18 10:32:24;;;;;;;;;10.25;8.25;;;;;12.37;41.15;103606.66;5060725;28;45258;-62
2022/03/18 10:37:50;;;;;;;;;15.50;11.00;;;;;12.43;41.08;103602.13;5060524;28;45317;-61
2022/03/18 10:40:19;;;;;;;;;14.00;11.00;;;;;12.46;41.13;103583.53;5059164;28;45393;-63
2022/03/18 10:42:58;;;;;;;;;18.00;9.50;;;;;12.52;41.45;103606.34;5039956;28;45498;-62
2022/03/18 10:45:23;;;;;;;;;13.00;11.75;;;;;12.56;40.60;103584.22;5040281;28;45429;-62
2022/03/18 10:47:50;;;;;;;;;9.50;8.75;;;;;12.58;39.81;103582.41;5040213;28;45276;-62
2022/03/18 10:50:23;;;;;;;;;10.50;8.00;;;;;12.63;40.47;103585.78;5040240;28;45324;-62
2022/03/18 10:52:49;;;;;;;;;12.50;11.25;;;;;12.69;40.66;103577.72;5040043;28;45397;-62
2022/03/18 10:55:26;;;;;;;;;10.50;10.50;;;;;12.76;40.81;103575.81;5040020;28;45277;-63
2022/03/18 10:57:59;;;;;;;;;9.50;9.50;;;;;12.82;40.51;103581.84;5039818;28;45356;-62
2022/03/18 11:00:30;;;;;;;;;9.00;8.00;;;;;12.88;39.69;103582.63;5047931;28;45502;-62
2022/03/18 11:03:00;;;;;;;;;13.25;10.00;;;;;12.97;39.71;103582.41;5060383;28;45237;-63
2022/03/18 11:05:30;;;;;;;;;13.00;9.00;;;;;13.01;38.40;103581.41;5060099;28;46625;-62
2022/03/18 11:07:55;;;;;;;;;9.75;8.50;;;;;13.06;37.96;103580.38;5060187;28;45150;-63
2022/03/18 11:13:07;;;;;;;;;9.00;8.25;;;;;13.22;38.18;103585.34;5044671;28;45356;-62
2022/03/18 11:15:36;;;;;;;;;9.25;7.75;;;;;13.30;38.43;103601.91;5043170;28;46089;-62
2022/03/18 11:18:03;;;;;;;;;7.50;7.50;;;;;13.32;37.77;103570.97;5043237;28;45344;-62
2022/03/18 11:20:33;;;;;;;;;11.75;6.00;;;;;13.39;36.96;103561.94;5043340;28;45242;-62
2022/03/18 11:22:58;;;;;;;;;8.00;6.00;;;;;13.44;36.19;103565.38;5032187;28;45542;-62
2022/03/18 11:25:25;;;;;;;;;9.75;6.00;;;;;13.48;34.62;103577.59;5063216;28;45761;-62
2022/03/18 11:27:51;;;;;;;;;4.50;4.50;;;;;13.47;33.94;103578.50;5063161;28;45315;-62
2022/03/18 11:30:34;;;;;;;;;7.75;6.00;;;;;13.49;34.43;103581.09;5063502;28;45291;-65
2022/03/18 11:33:06;;;;;;;;;12.00;8.75;;;;;13.52;34.85;103583.69;5063210;28;45515;-61